createdAt,value
2023-04-11T00:00:39.981Z,10.70
2023-04-11T00:03:07.222Z,10.60
2023-04-11T00:05:34.356Z,10.60
2023-04-11T00:08:01.464Z,10.60
2023-04-11T00:10:28.512Z,10.50
2023-04-11T00:12:56.816Z,10.50
2023-04-11T00:15:24.656Z,10.50
2023-04-11T00:17:51.744Z,10.50
2023-04-11T00:20:19.201Z,10.50
2023-04-11T00:22:46.217Z,10.50
2023-04-11T00:25:13.198Z,10.50
2023-04-11T00:27:40.143Z,10.50
2023-04-11T00:30:07.932Z,10.50
2023-04-11T00:32:34.903Z,10.50
2023-04-11T00:35:02.048Z,10.40
2023-04-11T00:37:29.104Z,10.50
2023-04-11T00:39:56.406Z,10.50
2023-04-11T00:42:23.434Z,10.40
2023-04-11T00:44:51.022Z,10.40
2023-04-11T00:47:18.825Z,10.30
2023-04-11T00:49:46.567Z,10.30
2023-04-11T00:52:13.734Z,10.30
2023-04-11T00:54:41.202Z,10.20
2023-04-11T00:57:08.548Z,10.20
2023-04-11T00:59:35.880Z,10.20
2023-04-11T01:02:02.940Z,10.20
2023-04-11T01:04:30.177Z,10.30
2023-04-11T01:07:04.199Z,10.30
2023-04-11T01:09:33.942Z,10.30
2023-04-11T01:12:03.318Z,10.30
2023-04-11T01:14:30.672Z,10.30
2023-04-11T01:16:58.176Z,10.30
2023-04-11T01:19:29.197Z,10.30
2023-04-11T01:21:58.027Z,10.40
2023-04-11T01:24:25.323Z,10.50
2023-04-11T01:26:52.384Z,10.40
2023-04-11T01:29:20.217Z,10.50
2023-04-11T01:31:48.277Z,10.40
2023-04-11T01:34:17.755Z,10.40
2023-04-11T01:36:45.414Z,10.40
2023-04-11T01:39:12.501Z,10.40
2023-04-11T01:41:41.841Z,10.30
2023-04-11T01:44:09.011Z,10.40
2023-04-11T01:46:36.102Z,10.40
2023-04-11T01:49:03.869Z,10.30
2023-04-11T01:51:32.147Z,10.30
2023-04-11T01:53:59.154Z,10.40
2023-04-11T01:56:26.169Z,10.40
2023-04-11T01:58:53.467Z,10.40
2023-04-11T02:01:20.678Z,10.40
2023-04-11T02:03:47.783Z,10.50
2023-04-11T02:06:16.705Z,10.50
2023-04-11T02:08:44.786Z,10.60
2023-04-11T02:11:11.922Z,10.60
2023-04-11T02:13:38.962Z,10.60
2023-04-11T02:16:18.204Z,10.70
2023-04-11T02:18:46.299Z,10.70
2023-04-11T02:21:13.412Z,10.80
2023-04-11T02:23:40.349Z,10.80
2023-04-11T02:26:07.346Z,10.80
2023-04-11T02:28:34.628Z,10.80
2023-04-11T02:31:03.188Z,10.80
2023-04-11T02:33:30.779Z,10.80
2023-04-11T02:35:57.882Z,10.80
2023-04-11T02:38:24.848Z,10.80
2023-04-11T02:40:51.772Z,10.80
2023-04-11T02:43:18.738Z,10.80
2023-04-11T02:45:45.767Z,10.80
2023-04-11T02:48:14.034Z,10.80
2023-04-11T02:50:44.337Z,10.80
2023-04-11T02:53:11.952Z,10.80
2023-04-11T02:55:45.776Z,10.70
2023-04-11T02:58:20.076Z,10.70
2023-04-11T03:00:50.048Z,10.70
2023-04-11T03:03:17.356Z,10.70
2023-04-11T03:05:47.476Z,10.70
2023-04-11T03:08:18.393Z,10.80
2023-04-11T03:10:50.773Z,10.80
2023-04-11T03:13:17.969Z,10.90
2023-04-11T03:15:45.297Z,10.90
2023-04-11T03:18:15.828Z,10.90
2023-04-11T03:20:45.359Z,10.90
2023-04-11T03:23:15.427Z,10.90
2023-04-11T03:25:44.663Z,11.00
2023-04-11T03:28:12.776Z,10.90
2023-04-11T03:30:41.156Z,11.00
2023-04-11T03:33:09.633Z,11.00
2023-04-11T03:35:37.303Z,10.90
2023-04-11T03:38:04.399Z,10.90
2023-04-11T03:40:31.405Z,10.80
2023-04-11T03:43:09.601Z,10.80
2023-04-11T03:45:37.347Z,10.70
2023-04-11T03:48:07.866Z,10.70
2023-04-11T03:50:57.555Z,10.70
2023-04-11T03:53:33.091Z,10.60
2023-04-11T03:56:08.317Z,10.60
2023-04-11T03:58:38.038Z,10.60
2023-04-11T04:01:05.517Z,10.60
2023-04-11T04:03:33.137Z,10.60
2023-04-11T04:06:00.815Z,10.60
2023-04-11T04:08:28.328Z,10.70
2023-04-11T04:10:56.181Z,10.70
2023-04-11T04:13:23.327Z,10.70
2023-04-11T04:16:03.642Z,10.70
2023-04-11T04:18:33.001Z,10.80
2023-04-11T04:21:00.935Z,10.80
2023-04-11T04:23:30.025Z,10.80
2023-04-11T04:26:13.227Z,10.80
2023-04-11T04:28:46.426Z,10.80
2023-04-11T04:31:25.618Z,10.90
2023-04-11T04:34:10.587Z,10.90
2023-04-11T04:36:47.831Z,10.90
2023-04-11T04:39:19.775Z,10.90
2023-04-11T04:41:58.210Z,10.90
2023-04-11T04:44:30.687Z,10.90
2023-04-11T04:47:02.609Z,10.90
2023-04-11T04:49:30.482Z,10.90
2023-04-11T04:51:57.419Z,10.90
2023-04-11T04:54:24.987Z,10.90
2023-04-11T04:56:52.808Z,10.80
2023-04-11T04:59:20.512Z,10.80
2023-04-11T05:01:54.674Z,10.80
2023-04-11T05:04:28.122Z,10.80
2023-04-11T05:06:58.951Z,10.80
2023-04-11T05:09:26.624Z,10.80
2023-04-11T05:12:01.602Z,10.80
2023-04-11T05:14:30.710Z,10.90
2023-04-11T05:16:57.730Z,10.90
2023-04-11T05:19:25.019Z,10.90
2023-04-11T05:21:52.589Z,11.00
2023-04-11T05:24:19.621Z,11.00
2023-04-11T05:26:46.848Z,11.10
2023-04-11T05:29:17.942Z,11.20
2023-04-11T05:31:44.934Z,11.20
2023-04-11T05:34:11.911Z,11.30
2023-04-11T05:36:38.986Z,11.40
2023-04-11T05:39:06.099Z,11.40
2023-04-11T05:41:33.208Z,11.50
2023-04-11T05:44:04.006Z,11.60
2023-04-11T05:46:35.798Z,11.60
2023-04-11T05:49:03.371Z,11.70
2023-04-11T05:51:30.819Z,11.90
2023-04-11T05:53:58.275Z,12.10
2023-04-11T05:56:25.726Z,12.50
2023-04-11T05:58:52.750Z,13.00
2023-04-11T06:01:19.800Z,13.70
2023-04-11T06:03:47.201Z,14.40
2023-04-11T06:06:14.576Z,15.20
2023-04-11T06:08:41.669Z,16.20
2023-04-11T06:11:08.814Z,16.90
2023-04-11T06:13:35.759Z,17.00
2023-04-11T06:16:02.806Z,16.90
2023-04-11T06:18:29.914Z,16.70
2023-04-11T06:20:57.746Z,16.70
2023-04-11T06:23:24.698Z,17.30
2023-04-11T06:25:51.732Z,17.80
2023-04-11T06:28:18.701Z,18.20
2023-04-11T06:30:45.905Z,18.50
2023-04-11T06:33:13.002Z,18.80
2023-04-11T06:35:40.129Z,19.00
2023-04-11T06:38:07.075Z,19.20
2023-04-11T06:40:33.995Z,19.50
2023-04-11T06:43:01.844Z,19.50
2023-04-11T06:45:28.940Z,19.50
2023-04-11T06:47:56.000Z,19.80
2023-04-11T06:50:23.113Z,20.10
2023-04-11T06:52:50.008Z,20.30
2023-04-11T06:55:17.220Z,20.50
2023-04-11T06:57:44.116Z,20.80
2023-04-11T07:00:13.135Z,21.20
2023-04-11T07:02:40.135Z,21.70
2023-04-11T07:05:09.361Z,22.40
2023-04-11T07:07:38.617Z,23.00
2023-04-11T07:10:06.442Z,23.30
2023-04-11T07:12:33.274Z,23.80
2023-04-11T07:15:00.390Z,24.50
2023-04-11T07:17:27.388Z,25.20
2023-04-11T07:19:54.426Z,25.80
2023-04-11T07:22:21.788Z,26.20
2023-04-11T07:24:51.416Z,26.50
2023-04-11T07:27:18.867Z,26.70
2023-04-11T07:29:45.830Z,27.00
2023-04-11T07:32:12.698Z,27.40
2023-04-11T07:34:39.558Z,27.60
2023-04-11T07:37:06.464Z,27.80
2023-04-11T07:39:33.974Z,28.20
2023-04-11T07:42:01.907Z,28.60
2023-04-11T07:44:28.869Z,28.70
2023-04-11T07:46:55.777Z,28.80
2023-04-11T07:49:22.676Z,29.20
2023-04-11T07:51:49.582Z,29.50
2023-04-11T07:54:16.698Z,29.60
2023-04-11T07:56:43.569Z,29.40
2023-04-11T07:59:13.171Z,29.10
2023-04-11T08:01:40.147Z,28.80
2023-04-11T08:04:07.091Z,28.60
2023-04-11T08:06:34.433Z,28.70
2023-04-11T08:09:01.321Z,28.40
2023-04-11T08:11:28.140Z,28.20
2023-04-11T08:13:55.345Z,28.30
2023-04-11T08:16:22.438Z,28.40
2023-04-11T08:18:49.342Z,28.50
2023-04-11T08:21:16.290Z,28.50
2023-04-11T08:23:43.088Z,28.40
2023-04-11T08:26:11.869Z,28.40
2023-04-11T08:28:41.114Z,28.70
2023-04-11T08:31:10.612Z,28.70
2023-04-11T08:33:39.015Z,28.90
2023-04-11T08:36:10.262Z,29.70
2023-04-11T08:38:37.816Z,30.40
2023-04-11T08:41:04.815Z,30.80
2023-04-11T08:43:35.338Z,30.80
2023-04-11T08:46:04.080Z,31.00
2023-04-11T08:48:32.259Z,31.30
2023-04-11T08:50:59.346Z,31.30
2023-04-11T08:53:26.956Z,30.20
2023-04-11T08:55:53.813Z,29.70
2023-04-11T08:58:20.754Z,29.90
2023-04-11T09:00:47.550Z,30.20
2023-04-11T09:03:16.420Z,29.90
2023-04-11T09:05:44.159Z,29.50
2023-04-11T09:08:11.809Z,28.90
2023-04-11T09:10:39.560Z,27.90
2023-04-11T09:13:20.555Z,27.60
2023-04-11T09:15:47.838Z,27.00
2023-04-11T09:18:33.845Z,26.50
2023-04-11T09:21:01.641Z,26.00
2023-04-11T09:23:28.880Z,26.10
2023-04-11T09:25:55.908Z,26.30
2023-04-11T09:28:23.182Z,26.70
2023-04-11T09:30:53.782Z,27.50
2023-04-11T09:33:28.568Z,28.00
2023-04-11T09:35:56.880Z,28.20
2023-04-11T09:38:27.599Z,28.30
2023-04-11T09:40:54.470Z,28.50
2023-04-11T09:43:21.546Z,28.90
2023-04-11T09:45:54.597Z,29.00
2023-04-11T09:48:26.853Z,28.70
2023-04-11T09:51:04.441Z,28.30
2023-04-11T09:53:31.795Z,28.30
2023-04-11T09:55:58.685Z,28.40
2023-04-11T09:58:26.161Z,28.60
2023-04-11T10:00:53.813Z,28.90
2023-04-11T10:03:23.723Z,29.10
2023-04-11T10:05:52.710Z,28.80
2023-04-11T10:08:32.934Z,28.10
2023-04-11T10:11:00.275Z,28.00
2023-04-11T10:13:37.646Z,28.00
2023-04-11T10:16:12.351Z,28.30
2023-04-11T10:18:51.245Z,28.50
2023-04-11T10:21:30.274Z,28.40
2023-04-11T10:24:17.546Z,28.20
2023-04-11T10:26:55.236Z,28.40
2023-04-11T10:29:34.699Z,28.90
2023-04-11T10:32:08.626Z,29.20
2023-04-11T10:34:38.819Z,29.90
2023-04-11T10:37:09.442Z,30.50
2023-04-11T10:39:48.419Z,30.50
2023-04-11T10:42:27.860Z,30.70
2023-04-11T10:45:13.140Z,31.20
2023-04-11T10:47:40.361Z,31.70
2023-04-11T10:50:33.284Z,32.10
2023-04-11T10:53:01.341Z,32.50
2023-04-11T10:55:29.007Z,32.60
2023-04-11T10:58:09.421Z,32.10
2023-04-11T11:00:49.529Z,30.70
2023-04-11T11:03:19.401Z,29.30
2023-04-11T11:05:46.693Z,28.80
2023-04-11T11:08:13.697Z,28.80
2023-04-11T11:10:41.850Z,28.20
2023-04-11T11:13:08.999Z,27.80
2023-04-11T11:15:39.944Z,27.80
2023-04-11T11:18:07.855Z,28.10
2023-04-11T11:20:35.842Z,28.60
2023-04-11T11:23:03.919Z,28.90
2023-04-11T11:25:31.242Z,29.20
2023-04-11T11:28:02.174Z,29.40
2023-04-11T11:30:29.033Z,29.10
2023-04-11T11:32:56.865Z,28.40
2023-04-11T11:35:24.296Z,28.20
2023-04-11T11:37:54.538Z,28.10
2023-04-11T11:40:24.279Z,28.10
2023-04-11T11:42:51.811Z,28.30
2023-04-11T11:45:19.797Z,28.50
2023-04-11T11:47:47.635Z,28.10
2023-04-11T11:50:31.182Z,28.20
2023-04-11T11:53:18.805Z,28.10
2023-04-11T11:55:45.984Z,28.10
2023-04-11T11:58:12.803Z,28.30
2023-04-11T12:00:40.113Z,28.20
2023-04-11T12:03:09.856Z,27.90
2023-04-11T12:05:37.056Z,27.70
2023-04-11T12:08:04.920Z,27.90
2023-04-11T12:10:42.072Z,28.30
2023-04-11T12:13:27.010Z,29.10
2023-04-11T12:19:02.805Z,29.30
2023-04-11T12:21:30.342Z,29.20
2023-04-11T12:23:57.603Z,29.20
2023-04-11T12:26:25.349Z,28.90
2023-04-11T12:28:52.537Z,28.70
2023-04-11T12:31:21.336Z,29.00
2023-04-11T12:33:48.436Z,29.00
2023-04-11T12:36:15.549Z,29.00
2023-04-11T12:38:42.523Z,29.00
2023-04-11T12:43:41.058Z,28.50
2023-04-11T12:46:08.081Z,28.60
2023-04-11T12:48:34.940Z,28.90
2023-04-11T12:51:01.804Z,29.20
2023-04-11T12:53:28.627Z,29.70
2023-04-11T12:55:55.468Z,30.10
2023-04-11T12:58:22.285Z,30.30
2023-04-11T13:00:49.134Z,30.40
2023-04-11T13:03:16.354Z,30.50
2023-04-11T13:05:43.283Z,30.30
2023-04-11T13:08:10.136Z,29.70
2023-04-11T13:10:36.944Z,29.30
2023-04-11T13:13:15.432Z,29.40
2023-04-11T13:15:44.610Z,28.90
2023-04-11T13:18:11.436Z,28.90
2023-04-11T13:20:38.332Z,28.90
2023-04-11T13:23:05.532Z,28.90
2023-04-11T13:25:32.339Z,28.90
2023-04-11T13:27:59.153Z,28.50
2023-04-11T13:30:26.143Z,28.20
2023-04-11T13:32:52.970Z,27.50
2023-04-11T13:35:19.791Z,27.20
2023-04-11T13:37:47.165Z,27.00
2023-04-11T13:40:14.031Z,26.50
2023-04-11T13:42:40.958Z,25.90
2023-04-11T13:45:08.034Z,25.70
2023-04-11T13:47:36.929Z,26.00
2023-04-11T13:50:06.237Z,26.20
2023-04-11T13:52:33.018Z,26.20
2023-04-11T13:54:59.918Z,26.30
2023-04-11T13:57:28.477Z,26.50
2023-04-11T13:59:55.439Z,26.50
2023-04-11T14:02:22.549Z,26.30
2023-04-11T14:04:49.560Z,26.20
2023-04-11T14:07:16.433Z,25.80
2023-04-11T14:09:43.211Z,25.70
2023-04-11T14:12:10.047Z,25.80
2023-04-11T14:14:36.855Z,25.80
2023-04-11T14:17:03.710Z,25.60
2023-04-11T14:19:30.846Z,25.60
2023-04-11T14:21:58.011Z,25.40
2023-04-11T14:24:25.135Z,25.10
2023-04-11T14:26:52.186Z,24.80
2023-04-11T14:29:20.932Z,24.40
2023-04-11T14:31:48.624Z,24.10
2023-04-11T14:34:16.087Z,23.80
2023-04-11T14:36:42.941Z,23.70
2023-04-11T14:39:09.774Z,23.80
2023-04-11T14:41:36.659Z,23.90
2023-04-11T14:44:03.505Z,23.90
2023-04-11T14:46:30.404Z,23.60
2023-04-11T14:48:57.351Z,23.50
2023-04-11T14:51:27.136Z,23.70
2023-04-11T14:53:55.429Z,24.10
2023-04-11T14:56:23.084Z,24.20
2023-04-11T14:58:50.604Z,24.10
2023-04-11T15:01:17.842Z,24.10
2023-04-11T15:03:45.363Z,24.10
2023-04-11T15:06:12.953Z,24.20
2023-04-11T15:08:40.450Z,24.50
2023-04-11T15:11:07.863Z,24.90
2023-04-11T15:13:35.144Z,25.30
2023-04-11T15:16:05.515Z,25.60
2023-04-11T15:18:32.659Z,25.70
2023-04-11T15:21:00.052Z,26.00
2023-04-11T15:23:27.065Z,26.10
2023-04-11T15:25:54.713Z,26.00
2023-04-11T15:28:22.140Z,25.80
2023-04-11T15:30:50.088Z,25.60
2023-04-11T15:33:17.161Z,25.30
2023-04-11T15:35:45.475Z,25.00
2023-04-11T15:38:13.254Z,24.60
2023-04-11T15:40:40.512Z,24.30
2023-04-11T15:43:09.155Z,24.00
2023-04-11T15:45:37.112Z,23.70
2023-04-11T15:48:04.375Z,23.30
2023-04-11T15:50:31.705Z,22.90
2023-04-11T15:52:58.829Z,22.60
2023-04-11T15:55:25.671Z,22.40
2023-04-11T15:57:52.611Z,22.20
2023-04-11T16:00:22.188Z,22.00
2023-04-11T16:02:49.832Z,21.80
2023-04-11T16:05:17.055Z,21.50
2023-04-11T16:07:44.014Z,21.50
2023-04-11T16:10:11.062Z,21.60
2023-04-11T16:12:37.845Z,21.60
2023-04-11T16:15:05.692Z,21.60
2023-04-11T16:17:32.773Z,21.70
2023-04-11T16:20:00.032Z,21.70
2023-04-11T16:22:26.950Z,21.80
2023-04-11T16:24:54.301Z,21.70
2023-04-11T16:27:21.690Z,21.70
2023-04-11T16:29:48.526Z,21.60
2023-04-11T16:32:15.476Z,21.40
2023-04-11T16:34:42.292Z,21.10
2023-04-11T16:37:09.119Z,20.90
2023-04-11T16:39:35.972Z,20.70
2023-04-11T16:42:03.348Z,20.60
2023-04-11T16:44:30.238Z,20.50
2023-04-11T16:46:57.050Z,20.40
2023-04-11T16:49:23.864Z,20.20
2023-04-11T16:51:50.942Z,20.10
2023-04-11T16:54:17.736Z,20.00
2023-04-11T16:56:44.573Z,19.90
2023-04-11T16:59:12.344Z,19.80
2023-04-11T17:01:39.449Z,19.80
2023-04-11T17:06:33.526Z,19.60
2023-04-11T17:09:00.412Z,19.50
2023-04-11T17:11:27.225Z,19.40
2023-04-11T17:13:56.078Z,19.30
2023-04-11T17:16:23.244Z,19.20
2023-04-11T17:18:50.243Z,19.10
2023-04-11T17:21:17.699Z,19.00
2023-04-11T17:23:47.108Z,19.00
2023-04-11T17:26:13.983Z,18.90
2023-04-11T17:28:41.038Z,18.80
2023-04-11T17:31:13.019Z,18.70
2023-04-11T17:33:40.231Z,18.60
2023-04-11T17:36:07.484Z,18.50
2023-04-11T17:38:34.412Z,18.40
2023-04-11T17:41:13.711Z,18.30
2023-04-11T17:43:41.647Z,18.20
2023-04-11T17:46:09.120Z,18.00
2023-04-11T17:48:36.408Z,17.90
2023-04-11T17:51:04.162Z,17.80
2023-04-11T17:53:31.111Z,17.70
2023-04-11T17:55:58.307Z,17.50
2023-04-11T17:58:25.475Z,17.40
2023-04-11T18:00:56.179Z,17.20
2023-04-11T18:03:25.529Z,17.10
2023-04-11T18:05:54.450Z,17.00
2023-04-11T18:08:35.513Z,16.90
2023-04-11T18:11:10.092Z,16.70
2023-04-11T18:13:36.907Z,16.50
2023-04-11T18:16:04.280Z,16.40
2023-04-11T18:18:31.348Z,16.30
2023-04-11T18:21:07.153Z,16.20
2023-04-11T18:23:34.853Z,16.20
2023-04-11T18:26:01.654Z,16.10
2023-04-11T18:28:28.751Z,16.10
2023-04-11T18:30:55.777Z,16.00
2023-04-11T18:33:22.819Z,15.90
2023-04-11T18:35:49.669Z,15.90
2023-04-11T18:38:16.599Z,15.90
2023-04-11T18:40:43.500Z,15.90
2023-04-11T18:43:10.453Z,15.90
2023-04-11T18:45:39.095Z,15.80
2023-04-11T18:48:06.751Z,15.80
2023-04-11T18:50:38.786Z,15.80
2023-04-11T18:53:08.863Z,15.80
2023-04-11T18:55:38.298Z,15.70
2023-04-11T18:58:08.500Z,15.70
2023-04-11T19:00:36.322Z,15.60
2023-04-11T19:03:05.044Z,15.60
2023-04-11T19:05:32.273Z,15.50
2023-04-11T19:07:59.709Z,15.60
2023-04-11T19:10:26.520Z,15.50
2023-04-11T19:12:53.383Z,15.40
2023-04-11T19:15:20.313Z,15.40
2023-04-11T19:17:47.213Z,15.30
2023-04-11T19:20:15.792Z,15.30
2023-04-11T19:22:42.884Z,15.20
2023-04-11T19:25:13.208Z,15.20
2023-04-11T19:27:41.986Z,15.20
2023-04-11T19:30:10.306Z,15.10
2023-04-11T19:32:40.631Z,15.00
2023-04-11T19:35:08.884Z,15.00
2023-04-11T19:37:36.405Z,15.00
2023-04-11T19:40:15.597Z,14.90
2023-04-11T19:42:43.168Z,14.90
2023-04-11T19:45:10.992Z,14.90
2023-04-11T19:47:39.638Z,14.80
2023-04-11T19:50:11.912Z,14.80
2023-04-11T19:52:40.602Z,14.80
2023-04-11T19:55:09.384Z,14.70
2023-04-11T19:57:40.194Z,14.70
2023-04-11T20:00:11.901Z,14.70
2023-04-11T20:02:41.035Z,14.60
2023-04-11T20:05:08.640Z,14.60
2023-04-11T20:07:35.474Z,14.60
2023-04-11T20:10:03.132Z,14.60
2023-04-11T20:12:29.929Z,14.60
2023-04-11T20:14:56.779Z,14.60
2023-04-11T20:17:23.668Z,14.60
2023-04-11T20:19:54.525Z,14.60
2023-04-11T20:22:25.652Z,14.60
2023-04-11T20:24:52.538Z,14.60
2023-04-11T20:27:19.406Z,14.60
2023-04-11T20:29:46.262Z,14.60
2023-04-11T20:32:13.051Z,14.60
2023-04-11T20:34:39.875Z,14.60
2023-04-11T20:37:06.966Z,14.60
2023-04-11T20:39:33.802Z,14.50
2023-04-11T20:42:03.538Z,14.50
2023-04-11T20:44:30.421Z,14.50
2023-04-11T20:46:57.275Z,14.60
2023-04-11T20:49:28.201Z,14.60
2023-04-11T20:51:55.101Z,14.60
2023-04-11T20:54:21.977Z,14.60
2023-04-11T20:56:48.823Z,14.60
2023-04-11T20:59:15.797Z,14.70
2023-04-11T21:01:43.994Z,14.70
2023-04-11T21:04:11.502Z,14.80
2023-04-11T21:06:38.435Z,14.80
2023-04-11T21:09:05.869Z,14.90
2023-04-11T21:11:33.768Z,14.80
2023-04-11T21:14:00.720Z,14.90
2023-04-11T21:16:27.647Z,14.80
2023-04-11T21:18:54.605Z,14.80
2023-04-11T21:21:21.471Z,14.70
2023-04-11T21:23:48.367Z,14.70
2023-04-11T21:26:15.449Z,14.80
2023-04-11T21:28:42.315Z,14.90
2023-04-11T21:31:09.200Z,14.90
2023-04-11T21:33:36.078Z,15.00
2023-04-11T21:36:02.941Z,15.00
2023-04-11T21:38:29.801Z,15.00
2023-04-11T21:40:56.772Z,15.10
2023-04-11T21:43:24.059Z,15.00
2023-04-11T21:45:50.919Z,15.00
2023-04-11T21:48:17.732Z,15.00
2023-04-11T21:50:45.844Z,15.00
2023-04-11T21:53:15.125Z,15.00
2023-04-11T21:55:46.376Z,15.00
2023-04-11T21:58:25.886Z,15.00
2023-04-11T22:00:55.996Z,15.00
2023-04-11T22:03:23.268Z,15.00
2023-04-11T22:05:50.783Z,15.00
2023-04-11T22:08:20.368Z,15.00
2023-04-11T22:10:48.285Z,15.00
2023-04-11T22:13:16.653Z,15.00
2023-04-11T22:15:43.860Z,14.90
2023-04-11T22:18:11.061Z,14.90
2023-04-11T22:20:43.520Z,14.90
2023-04-11T22:23:13.228Z,14.80
2023-04-11T22:25:43.315Z,14.80
2023-04-11T22:28:14.101Z,14.70
2023-04-11T22:30:41.474Z,14.70
2023-04-11T22:33:09.030Z,14.60
2023-04-11T22:35:35.963Z,14.60
2023-04-11T22:38:03.840Z,14.60
2023-04-11T22:40:30.848Z,14.60
2023-04-11T22:42:57.672Z,14.60
2023-04-11T22:45:24.592Z,14.60
2023-04-11T22:47:56.104Z,14.50
2023-04-11T22:50:23.064Z,14.50
2023-04-11T22:52:50.185Z,14.50
2023-04-11T22:55:18.670Z,14.50
2023-04-11T22:57:45.532Z,14.40
2023-04-11T23:00:15.786Z,14.40
2023-04-11T23:02:43.891Z,14.40
2023-04-11T23:05:11.082Z,14.30
2023-04-11T23:07:38.145Z,14.30
2023-04-11T23:10:06.264Z,14.30
2023-04-11T23:12:33.146Z,14.40
2023-04-11T23:15:02.281Z,14.40
2023-04-11T23:17:29.492Z,14.30
2023-04-11T23:19:59.360Z,14.30
2023-04-11T23:22:26.597Z,14.30
2023-04-11T23:24:53.823Z,14.30
2023-04-11T23:27:20.990Z,14.20
2023-04-11T23:29:52.646Z,14.20
2023-04-11T23:32:20.086Z,14.20
2023-04-11T23:34:46.930Z,14.20
2023-04-11T23:37:13.824Z,14.30
2023-04-11T23:39:41.094Z,14.30
2023-04-11T23:42:08.040Z,14.30
2023-04-11T23:44:35.006Z,14.20
2023-04-11T23:47:01.880Z,14.30
2023-04-11T23:49:29.534Z,14.20
2023-04-11T23:51:56.556Z,14.20
2023-04-11T23:54:23.366Z,14.30
2023-04-11T23:56:50.224Z,14.20
2023-04-11T23:59:17.019Z,14.10
